<?xml version="1.0" encoding="utf-8"?>
<gpx xmlns:xsi="http://www.w3.org/2001/XMLSchema-instance" xmlns:xsd="http://www.w3.org/2001/XMLSchema" version="1.1" creator="Shapelink.com" xmlns="http://www.topografix.com/GPX/1/1" xmlns:gpxtpx="http://www.garmin.com/xmlschemas/TrackPointExtension/v1">
  <metadata>
    <name>Svømning 0.88 km, 2014-08-07</name>
    <desc></desc>
    <author><name>Stefan Östlund</name></author> 
    <time>2014-08-07T18:14:27Z</time>
  </metadata>
  <trk>
    <name>Svømning 0.88 km, 2014-08-07</name>
    <trkseg>
      <trkpt lat="59.976319056004" lon="15.785994222388">
        <ele>0</ele>
        <time>2014-08-07T18:14:27Z</time>
      </trkpt>
      <trkpt lat="59.977279957384" lon="15.785647295415">
        <ele>0</ele>
        <time>2014-08-07T18:18:05Z</time>
      </trkpt>
      <trkpt lat="59.977743476629" lon="15.785683672875">
        <ele>0</ele>
        <time>2014-08-07T18:18:55Z</time>
      </trkpt>
      <trkpt lat="59.977842550725" lon="15.785789284855">
        <ele>0</ele>
        <time>2014-08-07T18:19:25Z</time>
      </trkpt>
      <trkpt lat="59.978344710544" lon="15.785999167711">
        <ele>0</ele>
        <time>2014-08-07T18:21:16Z</time>
      </trkpt>
      <trkpt lat="59.977966686711" lon="15.784966181964">
        <ele>0</ele>
        <time>2014-08-07T18:23:39Z</time>
      </trkpt>
      <trkpt lat="59.97791396454" lon="15.784257240593">
        <ele>0</ele>
        <time>2014-08-07T18:24:43Z</time>
      </trkpt>
      <trkpt lat="59.977385485545" lon="15.783657599241">
        <ele>0</ele>
        <time>2014-08-07T18:26:07Z</time>
      </trkpt>
      <trkpt lat="59.977121371776" lon="15.782917896286">
        <ele>0</ele>
        <time>2014-08-07T18:27:26Z</time>
      </trkpt>
      <trkpt lat="59.976864969358" lon="15.78244490549">
        <ele>0</ele>
        <time>2014-08-07T18:28:35Z</time>
      </trkpt>
      <trkpt lat="59.976516198367" lon="15.782858133316">
        <ele>0</ele>
        <time>2014-08-07T18:30:40Z</time>
      </trkpt>
      <trkpt lat="59.97572042048" lon="15.783493816853">
        <ele>0</ele>
        <time>2014-08-07T18:33:18Z</time>
      </trkpt>
      <trkpt lat="59.97541565448" lon="15.783808054402">
        <ele>0</ele>
        <time>2014-08-07T18:34:11Z</time>
      </trkpt>
      <trkpt lat="59.975799126551" lon="15.784712294117">
        <ele>0</ele>
        <time>2014-08-07T18:35:30Z</time>
      </trkpt>
      <trkpt lat="59.975883197039" lon="15.785420229658">
        <ele>0</ele>
        <time>2014-08-07T18:36:13Z</time>
      </trkpt>
      <trkpt lat="59.976116130129" lon="15.786157334223">
        <ele>0</ele>
        <time>2014-08-07T18:37:58Z</time>
      </trkpt>
      <trkpt lat="59.975983193144" lon="15.786605430767">
        <ele>0</ele>
        <time>2014-08-07T18:39:41Z</time>
      </trkpt>
    </trkseg>
  </trk>
</gpx>